sensor_id;sensor_type;location;lat;lon;timestamp;pressure;altitude;pressure_sealevel;temperature;humidity
57847;BME280;43675;50.030;21.952;2022-11-11T00:00:57;100062.54;;;7.61;79.69
57847;BME280;43675;50.030;21.952;2022-11-11T00:03:18;100067.36;;;7.54;79.74
57847;BME280;43675;50.030;21.952;2022-11-11T00:05:43;100070.48;;;7.45;79.79
57847;BME280;43675;50.030;21.952;2022-11-11T00:08:09;100073.32;;;7.40;79.91
57847;BME280;43675;50.030;21.952;2022-11-11T00:10:34;100066.77;;;7.34;79.96
57847;BME280;43675;50.030;21.952;2022-11-11T00:13:07;100071.75;;;7.29;80.00
57847;BME280;43675;50.030;21.952;2022-11-11T00:15:38;100079.57;;;7.23;80.08
57847;BME280;43675;50.030;21.952;2022-11-11T00:18:04;100075.55;;;7.19;80.19
57847;BME280;43675;50.030;21.952;2022-11-11T00:20:30;100071.16;;;7.13;80.26
57847;BME280;43675;50.030;21.952;2022-11-11T00:22:56;100075.34;;;7.12;80.44
57847;BME280;43675;50.030;21.952;2022-11-11T00:25:22;100077.17;;;7.11;80.42
57847;BME280;43675;50.030;21.952;2022-11-11T00:27:47;100082.49;;;7.07;80.33
57847;BME280;43675;50.030;21.952;2022-11-11T00:30:13;100081.63;;;7.03;80.30
57847;BME280;43675;50.030;21.952;2022-11-11T00:32:39;100081.45;;;7.00;80.35
57847;BME280;43675;50.030;21.952;2022-11-11T00:35:05;100088.63;;;7.00;80.52
57847;BME280;43675;50.030;21.952;2022-11-11T00:37:32;100087.11;;;6.97;80.50
57847;BME280;43675;50.030;21.952;2022-11-11T00:40:08;100091.27;;;6.96;80.59
57847;BME280;43675;50.030;21.952;2022-11-11T00:42:42;100087.92;;;6.94;80.63
57847;BME280;43675;50.030;21.952;2022-11-11T00:45:09;100094.89;;;6.91;80.66
57847;BME280;43675;50.030;21.952;2022-11-11T00:47:35;100097.73;;;6.89;80.68
57847;BME280;43675;50.030;21.952;2022-11-11T00:50:02;100092.89;;;6.89;80.77
57847;BME280;43675;50.030;21.952;2022-11-11T00:52:28;100099.73;;;6.91;80.90
57847;BME280;43675;50.030;21.952;2022-11-11T00:54:53;100080.91;;;6.93;80.94
57847;BME280;43675;50.030;21.952;2022-11-11T00:57:19;100080.91;;;6.93;80.87
57847;BME280;43675;50.030;21.952;2022-11-11T00:59:44;100090.25;;;6.93;80.92
57847;BME280;43675;50.030;21.952;2022-11-11T01:02:10;100091.93;;;6.94;80.92
57847;BME280;43675;50.030;21.952;2022-11-11T01:04:36;100079.92;;;6.94;80.95
57847;BME280;43675;50.030;21.952;2022-11-11T01:07:01;100076.91;;;6.93;80.88
57847;BME280;43675;50.030;21.952;2022-11-11T01:09:27;100086.07;;;6.94;80.87
57847;BME280;43675;50.030;21.952;2022-11-11T01:12:00;100082.73;;;6.92;80.92
57847;BME280;43675;50.030;21.952;2022-11-11T01:14:32;100079.72;;;6.91;81.03
57847;BME280;43675;50.030;21.952;2022-11-11T01:16:58;100084.91;;;6.93;81.09
57847;BME280;43675;50.030;21.952;2022-11-11T01:19:23;100077.40;;;6.92;81.09
57847;BME280;43675;50.030;21.952;2022-11-11T01:21:56;100073.05;;;6.91;80.90
57847;BME280;43675;50.030;21.952;2022-11-11T01:24:21;100079.20;;;6.88;80.88
57847;BME280;43675;50.030;21.952;2022-11-11T01:26:47;100084.68;;;6.86;80.78
57847;BME280;43675;50.030;21.952;2022-11-11T01:29:13;100080.33;;;6.81;80.75
57847;BME280;43675;50.030;21.952;2022-11-11T01:31:38;100082.97;;;6.77;80.80
57847;BME280;43675;50.030;21.952;2022-11-11T01:34:04;100087.78;;;6.74;80.80
57847;BME280;43675;50.030;21.952;2022-11-11T01:36:30;100083.08;;;6.72;80.85
57847;BME280;43675;50.030;21.952;2022-11-11T01:38:58;100085.72;;;6.68;80.77
57847;BME280;43675;50.030;21.952;2022-11-11T01:41:30;100087.52;;;6.63;80.67
57847;BME280;43675;50.030;21.952;2022-11-11T01:44:18;100087.16;;;6.58;80.69
57847;BME280;43675;50.030;21.952;2022-11-11T01:46:57;100090.78;;;6.53;80.74
57847;BME280;43675;50.030;21.952;2022-11-11T01:49:50;100082.36;;;6.44;80.93
57847;BME280;43675;50.030;21.952;2022-11-11T01:52:25;100093.20;;;6.42;80.94
57847;BME280;43675;50.030;21.952;2022-11-11T02:00:08;100093.16;;;6.38;81.20
57847;BME280;43675;50.030;21.952;2022-11-11T02:02:40;100090.50;;;6.38;81.14
57847;BME280;43675;50.030;21.952;2022-11-11T02:05:09;100098.50;;;6.38;81.15
57847;BME280;43675;50.030;21.952;2022-11-11T02:07:35;100089.80;;;6.36;81.13
57847;BME280;43675;50.030;21.952;2022-11-11T02:10:04;100094.45;;;6.34;81.16
57847;BME280;43675;50.030;21.952;2022-11-11T02:12:31;100093.97;;;6.35;81.19
57847;BME280;43675;50.030;21.952;2022-11-11T02:14:58;100097.13;;;6.34;81.26
57847;BME280;43675;50.030;21.952;2022-11-11T02:17:27;100093.12;;;6.34;81.35
57847;BME280;43675;50.030;21.952;2022-11-11T02:19:59;100100.95;;;6.36;81.39
57847;BME280;43675;50.030;21.952;2022-11-11T02:25:09;100106.33;;;6.40;81.65
57847;BME280;43675;50.030;21.952;2022-11-11T02:27:37;100108.19;;;6.43;81.78
57847;BME280;43675;50.030;21.952;2022-11-11T02:30:05;100110.08;;;6.47;81.64
57847;BME280;43675;50.030;21.952;2022-11-11T02:32:32;100107.55;;;6.45;81.47
57847;BME280;43675;50.030;21.952;2022-11-11T02:34:57;100112.53;;;6.44;81.48
57847;BME280;43675;50.030;21.952;2022-11-11T02:37:24;100109.03;;;6.44;81.41
57847;BME280;43675;50.030;21.952;2022-11-11T02:39:59;100113.52;;;6.43;81.38
57847;BME280;43675;50.030;21.952;2022-11-11T02:42:26;100112.85;;;6.41;81.44
57847;BME280;43675;50.030;21.952;2022-11-11T02:44:58;100117.83;;;6.40;81.36
57847;BME280;43675;50.030;21.952;2022-11-11T02:47:24;100120.15;;;6.39;81.39
57847;BME280;43675;50.030;21.952;2022-11-11T02:49:50;100109.16;;;6.38;81.48
57847;BME280;43675;50.030;21.952;2022-11-11T02:52:16;100119.52;;;6.41;81.63
57847;BME280;43675;50.030;21.952;2022-11-11T02:54:41;100116.70;;;6.43;81.62
57847;BME280;43675;50.030;21.952;2022-11-11T02:57:14;100127.55;;;6.45;81.64
57847;BME280;43675;50.030;21.952;2022-11-11T02:59:40;100130.22;;;6.45;81.61
57847;BME280;43675;50.030;21.952;2022-11-11T03:02:06;100120.58;;;6.48;81.82
57847;BME280;43675;50.030;21.952;2022-11-11T03:04:32;100125.80;;;6.54;82.01
57847;BME280;43675;50.030;21.952;2022-11-11T03:06:58;100128.37;;;6.63;82.17
57847;BME280;43675;50.030;21.952;2022-11-11T03:09:24;100131.45;;;6.73;82.27
57847;BME280;43675;50.030;21.952;2022-11-11T03:11:57;100126.36;;;6.83;82.38
57847;BME280;43675;50.030;21.952;2022-11-11T03:14:23;100130.77;;;6.92;82.43
57847;BME280;43675;50.030;21.952;2022-11-11T03:16:48;100137.33;;;7.02;82.35
57847;BME280;43675;50.030;21.952;2022-11-11T03:19:14;100142.06;;;7.08;82.12
57847;BME280;43675;50.030;21.952;2022-11-11T03:21:40;100143.75;;;7.09;81.86
57847;BME280;43675;50.030;21.952;2022-11-11T03:24:06;100148.24;;;7.08;81.69
57847;BME280;43675;50.030;21.952;2022-11-11T03:26:32;100151.75;;;7.09;81.71
57847;BME280;43675;50.030;21.952;2022-11-11T03:28:57;100151.93;;;7.11;81.84
57847;BME280;43675;50.030;21.952;2022-11-11T03:31:23;100153.95;;;7.18;81.96
57847;BME280;43675;50.030;21.952;2022-11-11T03:33:50;100154.19;;;7.24;82.05
57847;BME280;43675;50.030;21.952;2022-11-11T03:36:16;100151.22;;;7.31;82.08
57847;BME280;43675;50.030;21.952;2022-11-11T03:38:41;100149.44;;;7.40;82.04
57847;BME280;43675;50.030;21.952;2022-11-11T03:41:07;100150.31;;;7.44;81.88
57847;BME280;43675;50.030;21.952;2022-11-11T03:43:39;100152.80;;;7.46;81.66
57847;BME280;43675;50.030;21.952;2022-11-11T03:46:04;100151.95;;;7.45;81.63
57847;BME280;43675;50.030;21.952;2022-11-11T03:48:36;100149.48;;;7.48;81.67
57847;BME280;43675;50.030;21.952;2022-11-11T03:51:02;100153.34;;;7.53;81.76
57847;BME280;43675;50.030;21.952;2022-11-11T03:53:28;100149.84;;;7.57;81.77
57847;BME280;43675;50.030;21.952;2022-11-11T03:56:00;100148.87;;;7.62;81.62
57847;BME280;43675;50.030;21.952;2022-11-11T03:58:26;100146.20;;;7.62;81.52
57847;BME280;43675;50.030;21.952;2022-11-11T04:00:51;100135.03;;;7.63;81.54
57847;BME280;43675;50.030;21.952;2022-11-11T04:03:23;100141.87;;;7.65;81.54
57847;BME280;43675;50.030;21.952;2022-11-11T04:05:49;100143.41;;;7.68;81.54
57847;BME280;43675;50.030;21.952;2022-11-11T04:08:17;100145.26;;;7.71;81.46
57847;BME280;43675;50.030;21.952;2022-11-11T04:10:43;100149.93;;;7.73;81.40
57847;BME280;43675;50.030;21.952;2022-11-11T04:13:09;100153.78;;;7.75;81.38
57847;BME280;43675;50.030;21.952;2022-11-11T04:15:41;100158.46;;;7.77;81.40
57847;BME280;43675;50.030;21.952;2022-11-11T04:18:07;100162.98;;;7.80;81.34
57847;BME280;43675;50.030;21.952;2022-11-11T04:20:33;100156.50;;;7.83;81.31
57847;BME280;43675;50.030;21.952;2022-11-11T04:22:58;100166.02;;;7.85;81.30
57847;BME280;43675;50.030;21.952;2022-11-11T04:25:24;100158.20;;;7.88;81.28
57847;BME280;43675;50.030;21.952;2022-11-11T04:27:50;100158.71;;;7.91;81.26
57847;BME280;43675;50.030;21.952;2022-11-11T04:30:15;100158.38;;;7.94;81.25
57847;BME280;43675;50.030;21.952;2022-11-11T04:32:43;100160.23;;;7.98;81.18
57847;BME280;43675;50.030;21.952;2022-11-11T04:35:11;100163.56;;;8.00;81.14
57847;BME280;43675;50.030;21.952;2022-11-11T04:37:45;100165.24;;;8.01;81.11
57847;BME280;43675;50.030;21.952;2022-11-11T04:40:12;100163.27;;;8.03;81.06
57847;BME280;43675;50.030;21.952;2022-11-11T04:42:37;100154.89;;;8.02;81.03
57847;BME280;43675;50.030;21.952;2022-11-11T04:45:05;100162.23;;;8.04;80.96
57847;BME280;43675;50.030;21.952;2022-11-11T04:47:31;100168.42;;;8.04;80.91
57847;BME280;43675;50.030;21.952;2022-11-11T04:50:04;100169.27;;;8.05;80.88
57847;BME280;43675;50.030;21.952;2022-11-11T04:52:30;100174.47;;;8.06;80.86
57847;BME280;43675;50.030;21.952;2022-11-11T04:54:58;100169.95;;;8.07;80.84
57847;BME280;43675;50.030;21.952;2022-11-11T04:57:24;100177.30;;;8.09;80.80
57847;BME280;43675;50.030;21.952;2022-11-11T04:59:49;100173.79;;;8.08;80.75
57847;BME280;43675;50.030;21.952;2022-11-11T05:02:15;100168.78;;;8.09;80.69
57847;BME280;43675;50.030;21.952;2022-11-11T05:04:41;100174.98;;;8.10;80.62
57847;BME280;43675;50.030;21.952;2022-11-11T05:07:06;100161.27;;;8.09;80.55
57847;BME280;43675;50.030;21.952;2022-11-11T05:09:32;100165.95;;;8.07;80.42
57847;BME280;43675;50.030;21.952;2022-11-11T05:11:57;100163.08;;;8.04;80.32
57847;BME280;43675;50.030;21.952;2022-11-11T05:14:23;100163.91;;;8.01;80.25
57847;BME280;43675;50.030;21.952;2022-11-11T05:16:57;100156.05;;;7.95;80.21
57847;BME280;43675;50.030;21.952;2022-11-11T05:19:23;100167.57;;;7.92;80.20
57847;BME280;43675;50.030;21.952;2022-11-11T05:21:51;100167.72;;;7.90;80.22
57847;BME280;43675;50.030;21.952;2022-11-11T05:24:18;100173.56;;;7.90;80.30
57847;BME280;43675;50.030;21.952;2022-11-11T05:26:43;100172.22;;;7.90;80.41
57847;BME280;43675;50.030;21.952;2022-11-11T05:29:09;100171.05;;;7.92;80.49
57847;BME280;43675;50.030;21.952;2022-11-11T05:31:35;100169.23;;;7.97;80.50
57847;BME280;43675;50.030;21.952;2022-11-11T05:34:00;100164.58;;;7.99;80.42
57847;BME280;43675;50.030;21.952;2022-11-11T05:36:26;100169.44;;;7.99;80.29
57847;BME280;43675;50.030;21.952;2022-11-11T05:38:52;100176.12;;;7.99;80.26
57847;BME280;43675;50.030;21.952;2022-11-11T05:41:17;100178.79;;;7.99;80.27
57847;BME280;43675;50.030;21.952;2022-11-11T05:43:43;100187.81;;;8.02;80.32
57847;BME280;43675;50.030;21.952;2022-11-11T05:46:09;100191.84;;;8.06;80.33
57847;BME280;43675;50.030;21.952;2022-11-11T05:48:34;100187.66;;;8.08;80.29
57847;BME280;43675;50.030;21.952;2022-11-11T05:51:06;100193.02;;;8.12;80.27
57847;BME280;43675;50.030;21.952;2022-11-11T05:53:38;100197.39;;;8.17;80.26
57847;BME280;43675;50.030;21.952;2022-11-11T05:56:04;100203.08;;;8.18;80.20
57847;BME280;43675;50.030;21.952;2022-11-11T05:58:30;100209.78;;;8.22;80.18
57847;BME280;43675;50.030;21.952;2022-11-11T06:00:55;100212.97;;;8.26;80.12
57847;BME280;43675;50.030;21.952;2022-11-11T06:03:21;100216.53;;;8.30;80.00
57847;BME280;43675;50.030;21.952;2022-11-11T06:05:47;100218.03;;;8.33;79.88
57847;BME280;43675;50.030;21.952;2022-11-11T06:08:12;100217.70;;;8.36;79.83
57847;BME280;43675;50.030;21.952;2022-11-11T06:10:44;100224.09;;;8.39;79.83
57847;BME280;43675;50.030;21.952;2022-11-11T06:13:10;100221.08;;;8.42;79.80
57847;BME280;43675;50.030;21.952;2022-11-11T06:15:36;100223.09;;;8.48;79.75
57847;BME280;43675;50.030;21.952;2022-11-11T06:18:03;100228.30;;;8.53;79.63
57847;BME280;43675;50.030;21.952;2022-11-11T06:20:30;100227.81;;;8.58;79.46
57847;BME280;43675;50.030;21.952;2022-11-11T06:22:56;100224.45;;;8.60;79.33
57847;BME280;43675;50.030;21.952;2022-11-11T06:25:26;100227.98;;;8.65;79.28
57847;BME280;43675;50.030;21.952;2022-11-11T06:27:50;100229.17;;;8.70;79.29
57847;BME280;43675;50.030;21.952;2022-11-11T06:30:15;100233.85;;;8.76;79.29
57847;BME280;43675;50.030;21.952;2022-11-11T06:32:41;100239.38;;;8.87;79.18
57847;BME280;43675;50.030;21.952;2022-11-11T06:35:07;100240.23;;;8.95;79.10
57847;BME280;43675;50.030;21.952;2022-11-11T06:37:33;100236.22;;;9.03;78.93
57847;BME280;43675;50.030;21.952;2022-11-11T06:39:58;100240.24;;;9.12;78.78
57847;BME280;43675;50.030;21.952;2022-11-11T06:42:24;100243.08;;;9.18;78.67
57847;BME280;43675;50.030;21.952;2022-11-11T06:44:50;100239.75;;;9.28;78.55
57847;BME280;43675;50.030;21.952;2022-11-11T06:47:16;100235.23;;;9.37;78.41
57847;BME280;43675;50.030;21.952;2022-11-11T06:49:48;100239.05;;;9.46;78.28
57847;BME280;43675;50.030;21.952;2022-11-11T06:52:14;100231.00;;;9.59;78.13
57847;BME280;43675;50.030;21.952;2022-11-11T06:54:39;100236.98;;;9.73;77.81
57847;BME280;43675;50.030;21.952;2022-11-11T06:57:05;100236.45;;;9.85;77.47
57847;BME280;43675;50.030;21.952;2022-11-11T06:59:31;100231.90;;;9.98;77.14
57847;BME280;43675;50.030;21.952;2022-11-11T07:01:56;100232.20;;;10.11;76.72
57847;BME280;43675;50.030;21.952;2022-11-11T07:04:29;100228.48;;;10.20;76.38
57847;BME280;43675;50.030;21.952;2022-11-11T07:06:55;100216.03;;;10.27;76.01
57847;BME280;43675;50.030;21.952;2022-11-11T07:09:20;100222.70;;;10.35;75.81
57847;BME280;43675;50.030;21.952;2022-11-11T07:11:46;100229.06;;;10.42;75.53
57847;BME280;43675;50.030;21.952;2022-11-11T07:14:11;100225.80;;;10.51;75.26
57847;BME280;43675;50.030;21.952;2022-11-11T07:16:37;100223.91;;;10.60;75.12
57847;BME280;43675;50.030;21.952;2022-11-11T07:19:03;100225.35;;;10.70;74.86
57847;BME280;43675;50.030;21.952;2022-11-11T07:21:35;100223.95;;;10.78;74.62
57847;BME280;43675;50.030;21.952;2022-11-11T07:24:00;100226.78;;;10.85;74.27
57847;BME280;43675;50.030;21.952;2022-11-11T07:26:26;100219.48;;;10.98;73.96
57847;BME280;43675;50.030;21.952;2022-11-11T07:28:51;100225.77;;;11.09;73.78
57847;BME280;43675;50.030;21.952;2022-11-11T07:31:17;100217.41;;;11.22;73.53
57847;BME280;43675;50.030;21.952;2022-11-11T07:33:43;100219.48;;;11.35;73.27
57847;BME280;43675;50.030;21.952;2022-11-11T07:36:08;100222.57;;;11.47;72.89
57847;BME280;43675;50.030;21.952;2022-11-11T07:38:34;100219.80;;;11.55;72.67
57847;BME280;43675;50.030;21.952;2022-11-11T07:41:00;100216.86;;;11.64;72.44
57847;BME280;43675;50.030;21.952;2022-11-11T07:43:25;100217.63;;;11.73;72.16
57847;BME280;43675;50.030;21.952;2022-11-11T07:45:53;100223.42;;;11.80;71.82
57847;BME280;43675;50.030;21.952;2022-11-11T07:48:18;100221.98;;;11.89;71.58
57847;BME280;43675;50.030;21.952;2022-11-11T07:50:51;100218.37;;;11.96;71.53
57847;BME280;43675;50.030;21.952;2022-11-11T07:53:17;100219.31;;;12.03;71.25
57847;BME280;43675;50.030;21.952;2022-11-11T07:55:44;100222.09;;;12.10;71.18
57847;BME280;43675;50.030;21.952;2022-11-11T07:58:16;100226.53;;;12.17;71.07
57847;BME280;43675;50.030;21.952;2022-11-11T08:00:41;100224.42;;;12.23;70.95
57847;BME280;43675;50.030;21.952;2022-11-11T08:03:07;100225.55;;;12.29;70.66
57847;BME280;43675;50.030;21.952;2022-11-11T08:05:33;100221.78;;;12.34;70.45
57847;BME280;43675;50.030;21.952;2022-11-11T08:08:08;100222.57;;;12.39;70.25
57847;BME280;43675;50.030;21.952;2022-11-11T08:10:33;100219.28;;;12.43;69.99
57847;BME280;43675;50.030;21.952;2022-11-11T08:13:00;100213.72;;;12.45;69.73
57847;BME280;43675;50.030;21.952;2022-11-11T08:15:26;100210.98;;;12.49;69.44
57847;BME280;43675;50.030;21.952;2022-11-11T08:17:51;100206.88;;;12.53;69.40
57847;BME280;43675;50.030;21.952;2022-11-11T08:20:17;100205.15;;;12.56;69.36
57847;BME280;43675;50.030;21.952;2022-11-11T08:22:43;100205.42;;;12.61;69.21
57847;BME280;43675;50.030;21.952;2022-11-11T08:25:11;100204.02;;;12.65;68.99
57847;BME280;43675;50.030;21.952;2022-11-11T08:27:37;100193.03;;;12.66;68.87
57847;BME280;43675;50.030;21.952;2022-11-11T08:30:03;100189.47;;;12.70;68.55
57847;BME280;43675;50.030;21.952;2022-11-11T08:32:30;100189.59;;;12.72;68.24
57847;BME280;43675;50.030;21.952;2022-11-11T08:35:02;100198.84;;;12.74;68.06
57847;BME280;43675;50.030;21.952;2022-11-11T08:37:28;100203.56;;;12.72;67.92
57847;BME280;43675;50.030;21.952;2022-11-11T08:39:54;100212.27;;;12.63;67.70
57847;BME280;43675;50.030;21.952;2022-11-11T08:42:19;100214.84;;;12.50;67.65
57847;BME280;43675;50.030;21.952;2022-11-11T08:44:45;100225.27;;;12.39;67.72
57847;BME280;43675;50.030;21.952;2022-11-11T08:47:18;100223.19;;;12.30;67.90
57847;BME280;43675;50.030;21.952;2022-11-11T08:49:43;100213.15;;;12.24;67.89
57847;BME280;43675;50.030;21.952;2022-11-11T08:52:16;100220.55;;;12.26;67.93
57847;BME280;43675;50.030;21.952;2022-11-11T08:54:42;100216.58;;;12.32;68.01
57847;BME280;43675;50.030;21.952;2022-11-11T08:57:07;100214.80;;;12.40;67.91
57847;BME280;43675;50.030;21.952;2022-11-11T08:59:33;100212.20;;;12.46;67.56
57847;BME280;43675;50.030;21.952;2022-11-11T09:01:59;100213.28;;;12.52;67.42
57847;BME280;43675;50.030;21.952;2022-11-11T09:04:24;100210.98;;;12.59;67.28
57847;BME280;43675;50.030;21.952;2022-11-11T09:06:50;100208.89;;;12.65;67.07
57847;BME280;43675;50.030;21.952;2022-11-11T09:09:16;100212.61;;;12.75;66.91
57847;BME280;43675;50.030;21.952;2022-11-11T09:11:41;100214.67;;;12.84;66.67
57847;BME280;43675;50.030;21.952;2022-11-11T09:14:07;100208.83;;;12.91;66.37
57847;BME280;43675;50.030;21.952;2022-11-11T09:16:33;100206.52;;;12.98;66.24
57847;BME280;43675;50.030;21.952;2022-11-11T09:18:58;100211.59;;;13.08;65.81
57847;BME280;43675;50.030;21.952;2022-11-11T09:21:24;100211.50;;;13.16;65.55
57847;BME280;43675;50.030;21.952;2022-11-11T09:23:49;100207.65;;;13.25;65.32
57847;BME280;43675;50.030;21.952;2022-11-11T09:26:15;100202.63;;;13.33;64.95
57847;BME280;43675;50.030;21.952;2022-11-11T09:28:41;100206.20;;;13.40;64.75
57847;BME280;43675;50.030;21.952;2022-11-11T09:31:06;100209.05;;;13.49;64.77
57847;BME280;43675;50.030;21.952;2022-11-11T09:33:32;100196.40;;;13.60;64.65
57847;BME280;43675;50.030;21.952;2022-11-11T09:35:58;100194.61;;;13.73;64.49
57847;BME280;43675;50.030;21.952;2022-11-11T09:38:23;100190.52;;;13.84;64.12
57847;BME280;43675;50.030;21.952;2022-11-11T09:41:12;100192.03;;;13.93;64.06
57847;BME280;43675;50.030;21.952;2022-11-11T09:43:58;100187.81;;;14.01;63.85
57847;BME280;43675;50.030;21.952;2022-11-11T09:52:22;100193.72;;;14.18;63.74
57847;BME280;43675;50.030;21.952;2022-11-11T09:54:54;100193.95;;;14.23;63.55
57847;BME280;43675;50.030;21.952;2022-11-11T09:57:34;100196.16;;;14.30;63.54
57847;BME280;43675;50.030;21.952;2022-11-11T10:00:00;100195.09;;;14.42;63.31
57847;BME280;43675;50.030;21.952;2022-11-11T10:02:48;100192.50;;;14.51;62.85
57847;BME280;43675;50.030;21.952;2022-11-11T10:05:21;100188.92;;;14.61;62.33
57847;BME280;43675;50.030;21.952;2022-11-11T10:08:00;100187.29;;;14.73;62.14
57847;BME280;43675;50.030;21.952;2022-11-11T10:13:48;100190.13;;;14.95;61.44
57847;BME280;43675;50.030;21.952;2022-11-11T10:22:36;100192.44;;;15.11;60.61
57847;BME280;43675;50.030;21.952;2022-11-11T10:28:32;100201.48;;;15.01;60.43
57847;BME280;43675;50.030;21.952;2022-11-11T10:31:00;100199.87;;;14.90;60.63
57847;BME280;43675;50.030;21.952;2022-11-11T10:36:18;100196.49;;;15.05;60.12
57847;BME280;43675;50.030;21.952;2022-11-11T10:38:59;100200.64;;;15.07;59.79
57847;BME280;43675;50.030;21.952;2022-11-11T10:41:29;100199.71;;;15.04;59.58
57847;BME280;43675;50.030;21.952;2022-11-11T10:43:55;100199.07;;;15.02;59.43
57847;BME280;43675;50.030;21.952;2022-11-11T10:46:33;100196.36;;;15.02;59.43
57847;BME280;43675;50.030;21.952;2022-11-11T10:49:09;100188.38;;;15.05;59.30
57847;BME280;43675;50.030;21.952;2022-11-11T10:51:48;100183.69;;;15.03;59.44
57847;BME280;43675;50.030;21.952;2022-11-11T10:54:40;100190.67;;;15.01;59.32
57847;BME280;43675;50.030;21.952;2022-11-11T11:02:27;100189.39;;;14.91;58.91
57847;BME280;43675;50.030;21.952;2022-11-11T11:05:11;100190.73;;;14.78;59.01
57847;BME280;43675;50.030;21.952;2022-11-11T11:07:40;100179.37;;;14.65;59.37
57847;BME280;43675;50.030;21.952;2022-11-11T11:12:46;100189.37;;;14.41;59.35
57847;BME280;43675;50.030;21.952;2022-11-11T11:15:17;100182.00;;;14.39;59.55
57847;BME280;43675;50.030;21.952;2022-11-11T11:20:31;100169.40;;;14.65;59.22
57847;BME280;43675;50.030;21.952;2022-11-11T11:22:57;100169.11;;;14.78;59.00
57847;BME280;43675;50.030;21.952;2022-11-11T11:25:25;100169.75;;;14.93;58.61
57847;BME280;43675;50.030;21.952;2022-11-11T11:27:52;100162.47;;;15.06;57.96
57847;BME280;43675;50.030;21.952;2022-11-11T11:30:24;100153.31;;;15.14;57.36
57847;BME280;43675;50.030;21.952;2022-11-11T11:32:55;100158.53;;;15.15;57.21
57847;BME280;43675;50.030;21.952;2022-11-11T11:35:38;100153.73;;;15.18;57.22
57847;BME280;43675;50.030;21.952;2022-11-11T11:38:07;100151.25;;;15.16;57.20
57847;BME280;43675;50.030;21.952;2022-11-11T11:40:48;100134.40;;;15.07;57.17
57847;BME280;43675;50.030;21.952;2022-11-11T11:43:25;100152.19;;;15.12;57.26
57847;BME280;43675;50.030;21.952;2022-11-11T11:46:00;100159.25;;;15.07;57.15
57847;BME280;43675;50.030;21.952;2022-11-11T11:48:40;100146.25;;;15.00;57.15
57847;BME280;43675;50.030;21.952;2022-11-11T11:51:32;100144.06;;;14.99;57.18
57847;BME280;43675;50.030;21.952;2022-11-11T11:54:26;100128.48;;;15.01;57.34
57847;BME280;43675;50.030;21.952;2022-11-11T11:56:53;100135.11;;;15.05;57.44
57847;BME280;43675;50.030;21.952;2022-11-11T11:59:33;100136.47;;;15.05;57.14
57847;BME280;43675;50.030;21.952;2022-11-11T12:10:43;100142.73;;;15.12;56.73
57847;BME280;43675;50.030;21.952;2022-11-11T12:21:28;100132.63;;;15.10;56.58
57847;BME280;43675;50.030;21.952;2022-11-11T12:26:56;100110.06;;;15.07;56.45
57847;BME280;43675;50.030;21.952;2022-11-11T12:37:36;100113.70;;;15.24;56.41
57847;BME280;43675;50.030;21.952;2022-11-11T12:43:06;100116.59;;;15.22;56.44
57847;BME280;43675;50.030;21.952;2022-11-11T12:45:57;100122.01;;;15.22;56.37
57847;BME280;43675;50.030;21.952;2022-11-11T12:48:40;100120.89;;;15.21;56.23
57847;BME280;43675;50.030;21.952;2022-11-11T12:51:14;100109.95;;;15.18;56.40
57847;BME280;43675;50.030;21.952;2022-11-11T12:53:53;100104.66;;;15.21;56.47
57847;BME280;43675;50.030;21.952;2022-11-11T12:56:33;100101.72;;;15.22;56.34
57847;BME280;43675;50.030;21.952;2022-11-11T12:59:39;100090.81;;;15.20;56.12
57847;BME280;43675;50.030;21.952;2022-11-11T13:13:33;100102.58;;;14.77;56.75
57847;BME280;43675;50.030;21.952;2022-11-11T13:15:55;100107.77;;;14.72;56.84
57847;BME280;43675;50.030;21.952;2022-11-11T13:18:46;100110.14;;;14.64;57.00
57847;BME280;43675;50.030;21.952;2022-11-11T13:21:35;100111.69;;;14.62;57.05
57847;BME280;43675;50.030;21.952;2022-11-11T13:24:01;100117.61;;;14.55;56.98
57847;BME280;43675;50.030;21.952;2022-11-11T13:26:37;100117.61;;;14.49;57.07
57847;BME280;43675;50.030;21.952;2022-11-11T13:29:13;100118.86;;;14.46;56.96
57847;BME280;43675;50.030;21.952;2022-11-11T13:31:35;100123.00;;;14.42;57.02
57847;BME280;43675;50.030;21.952;2022-11-11T13:34:05;100130.88;;;14.37;56.92
57847;BME280;43675;50.030;21.952;2022-11-11T13:36:39;100128.23;;;14.33;56.87
57847;BME280;43675;50.030;21.952;2022-11-11T13:39:01;100137.17;;;14.34;56.80
57847;BME280;43675;50.030;21.952;2022-11-11T13:41:30;100138.94;;;14.31;56.85
57847;BME280;43675;50.030;21.952;2022-11-11T13:43:59;100134.56;;;14.30;56.73
57847;BME280;43675;50.030;21.952;2022-11-11T13:46:41;100129.87;;;14.28;56.81
57847;BME280;43675;50.030;21.952;2022-11-11T13:49:18;100129.45;;;14.24;56.80
57847;BME280;43675;50.030;21.952;2022-11-11T13:51:41;100132.13;;;14.17;56.80
57847;BME280;43675;50.030;21.952;2022-11-11T13:54:28;100119.97;;;14.11;56.90
57847;BME280;43675;50.030;21.952;2022-11-11T13:57:17;100116.71;;;14.05;56.93
57847;BME280;43675;50.030;21.952;2022-11-11T14:00:22;100109.09;;;13.91;57.26
57847;BME280;43675;50.030;21.952;2022-11-11T14:02:34;100113.69;;;13.80;57.55
57847;BME280;43675;50.030;21.952;2022-11-11T14:07:48;100119.90;;;13.57;57.85
57847;BME280;43675;50.030;21.952;2022-11-11T14:12:54;100113.84;;;13.31;58.25
57847;BME280;43675;50.030;21.952;2022-11-11T14:20:48;100109.71;;;12.86;59.16
57847;BME280;43675;50.030;21.952;2022-11-11T14:28:39;100116.22;;;12.49;59.93
57847;BME280;43675;50.030;21.952;2022-11-11T14:34:05;100118.26;;;12.26;60.49
57847;BME280;43675;50.030;21.952;2022-11-11T14:42:03;100109.10;;;11.95;61.50